createdAt,value
2019-03-30T00:00:43.336Z,933.34
2019-03-30T00:01:43.418Z,933.38
2019-03-30T00:02:43.451Z,933.30
2019-03-30T00:03:43.475Z,933.37
2019-03-30T00:04:43.503Z,933.37
2019-03-30T00:05:43.564Z,933.34
2019-03-30T00:06:43.603Z,933.34
2019-03-30T00:07:43.628Z,933.35
2019-03-30T00:08:43.690Z,933.32
2019-03-30T00:09:43.736Z,933.40
2019-03-30T00:10:43.779Z,933.38
2019-03-30T00:11:43.886Z,933.41
2019-03-30T00:12:43.879Z,933.36
2019-03-30T00:13:43.914Z,933.41
2019-03-30T00:14:43.963Z,933.38
2019-03-30T00:15:43.989Z,933.40
2019-03-30T00:16:44.042Z,933.44
2019-03-30T00:17:44.072Z,933.32
2019-03-30T00:18:44.138Z,933.37
2019-03-30T00:19:44.188Z,933.39
2019-03-30T00:20:44.222Z,933.39
2019-03-30T00:21:44.314Z,933.41
2019-03-30T00:22:44.294Z,933.45
2019-03-30T00:23:44.355Z,933.36
2019-03-30T00:24:44.379Z,933.46
2019-03-30T00:25:44.445Z,933.38
2019-03-30T00:26:44.496Z,933.41
2019-03-30T00:27:44.520Z,933.42
2019-03-30T00:28:44.569Z,933.38
2019-03-30T00:29:44.631Z,933.31
2019-03-30T00:30:44.742Z,933.33
2019-03-30T00:31:44.716Z,933.33
2019-03-30T00:32:44.800Z,933.35
2019-03-30T00:33:44.795Z,933.32
2019-03-30T00:34:44.822Z,933.39
2019-03-30T00:35:44.893Z,933.29
2019-03-30T00:36:44.927Z,933.40
2019-03-30T00:37:44.970Z,933.35
2019-03-30T00:38:45.014Z,933.33
2019-03-30T00:39:45.078Z,933.35
2019-03-30T00:40:45.124Z,933.32
2019-03-30T00:41:45.140Z,933.30
2019-03-30T00:42:45.211Z,933.32
2019-03-30T00:43:45.248Z,933.34
2019-03-30T00:44:45.288Z,933.27
2019-03-30T00:45:45.329Z,933.24
2019-03-30T00:46:45.368Z,933.28
2019-03-30T00:47:45.433Z,933.30
2019-03-30T00:48:45.506Z,933.34
2019-03-30T00:49:49.247Z,933.30
2019-03-30T00:50:45.576Z,933.35
2019-03-30T00:51:45.602Z,933.31
2019-03-30T00:52:45.686Z,933.32
2019-03-30T00:53:45.685Z,933.37
2019-03-30T00:54:45.733Z,933.24
2019-03-30T00:55:45.780Z,933.22
2019-03-30T00:56:45.802Z,933.23
2019-03-30T00:57:45.873Z,933.19
2019-03-30T00:58:45.916Z,933.27
2019-03-30T00:59:45.966Z,933.27
2019-03-30T01:00:46.038Z,933.25
2019-03-30T01:01:46.031Z,933.19
2019-03-30T01:02:46.119Z,933.13
2019-03-30T01:03:46.153Z,933.16
2019-03-30T01:04:46.197Z,933.14
2019-03-30T01:05:46.266Z,933.14
2019-03-30T01:06:46.273Z,933.11
2019-03-30T01:07:46.306Z,933.08
2019-03-30T01:08:46.353Z,933.11
2019-03-30T01:09:46.398Z,933.10
2019-03-30T01:10:46.465Z,933.11
2019-03-30T01:11:46.481Z,933.06
2019-03-30T01:12:46.532Z,933.08
2019-03-30T01:13:46.562Z,933.10
2019-03-30T01:14:46.641Z,933.04
2019-03-30T01:15:46.685Z,933.05
2019-03-30T01:16:46.709Z,933.03
2019-03-30T01:17:47.157Z,933.02
2019-03-30T01:18:47.205Z,933.02
2019-03-30T01:19:47.212Z,932.99
2019-03-30T01:20:47.274Z,933.01
2019-03-30T01:21:46.981Z,932.99
2019-03-30T01:22:46.993Z,933.00
2019-03-30T01:23:47.078Z,933.00
2019-03-30T01:24:47.221Z,933.02
2019-03-30T01:25:47.225Z,933.07
2019-03-30T01:26:47.222Z,933.01
2019-03-30T01:27:47.226Z,933.02
2019-03-30T01:28:47.247Z,932.99
2019-03-30T01:29:47.281Z,933.01
2019-03-30T01:30:47.332Z,933.02
2019-03-30T01:31:47.395Z,933.02
2019-03-30T01:32:47.420Z,932.99
2019-03-30T01:33:47.474Z,932.99
2019-03-30T01:34:47.516Z,932.99
2019-03-30T01:35:47.572Z,933.00
2019-03-30T01:36:47.631Z,932.98
2019-03-30T01:37:47.629Z,932.97
2019-03-30T01:38:47.699Z,932.97
2019-03-30T01:39:47.754Z,932.96
2019-03-30T01:40:47.764Z,932.95
2019-03-30T01:41:47.847Z,932.98
2019-03-30T01:42:48.335Z,932.95
2019-03-30T01:43:47.916Z,932.92
2019-03-30T01:44:47.968Z,932.88
2019-03-30T01:45:47.990Z,932.95
2019-03-30T01:46:48.156Z,932.92
2019-03-30T01:47:48.077Z,932.88
2019-03-30T01:48:48.123Z,932.86
2019-03-30T01:49:48.169Z,932.89
2019-03-30T01:50:48.235Z,932.90
2019-03-30T01:51:48.266Z,932.91
2019-03-30T01:52:48.322Z,932.89
2019-03-30T01:53:48.370Z,932.89
2019-03-30T01:54:48.409Z,932.82
2019-03-30T01:55:48.451Z,932.88
2019-03-30T01:56:48.512Z,932.88
2019-03-30T01:57:48.523Z,932.87
2019-03-30T01:58:48.577Z,932.88
2019-03-30T01:59:48.622Z,932.88
2019-03-30T02:00:48.666Z,932.84
2019-03-30T02:01:48.695Z,932.80
2019-03-30T02:02:48.739Z,932.83
2019-03-30T02:03:48.809Z,932.79
2019-03-30T02:04:48.844Z,932.78
2019-03-30T02:05:48.866Z,932.73
2019-03-30T02:06:48.931Z,932.77
2019-03-30T02:07:48.976Z,932.80
2019-03-30T02:08:49.028Z,932.76
2019-03-30T02:09:49.100Z,932.78
2019-03-30T02:10:49.116Z,932.75
2019-03-30T02:11:49.168Z,932.76
2019-03-30T02:12:49.243Z,932.72
2019-03-30T02:13:49.248Z,932.69
2019-03-30T02:14:49.266Z,932.70
2019-03-30T02:15:49.322Z,932.67
2019-03-30T02:16:49.363Z,932.69
2019-03-30T02:17:49.401Z,932.68
2019-03-30T02:18:49.466Z,932.69
2019-03-30T02:19:49.537Z,932.69
2019-03-30T02:20:49.560Z,932.69
2019-03-30T02:21:49.595Z,932.65
2019-03-30T02:22:49.627Z,932.66
2019-03-30T02:23:49.673Z,932.65
2019-03-30T02:24:49.735Z,932.68
2019-03-30T02:25:49.766Z,932.64
2019-03-30T02:26:49.848Z,932.61
2019-03-30T02:27:49.865Z,932.66
2019-03-30T02:28:49.897Z,932.66
2019-03-30T02:29:49.962Z,932.66
2019-03-30T02:30:49.978Z,932.65
2019-03-30T02:31:50.034Z,932.60
2019-03-30T02:32:50.088Z,932.66
2019-03-30T02:33:50.126Z,932.64
2019-03-30T02:34:50.171Z,932.60
2019-03-30T02:35:50.220Z,932.63
2019-03-30T02:36:50.262Z,932.61
2019-03-30T02:37:50.319Z,932.61
2019-03-30T02:38:50.366Z,932.63
2019-03-30T02:39:50.402Z,932.65
2019-03-30T02:40:50.431Z,932.63
2019-03-30T02:41:50.465Z,932.64
2019-03-30T02:42:50.504Z,932.64
2019-03-30T02:43:50.565Z,932.61
2019-03-30T02:44:50.592Z,932.62
2019-03-30T02:45:50.656Z,932.62
2019-03-30T02:46:50.722Z,932.64
2019-03-30T02:47:50.777Z,932.68
2019-03-30T02:48:50.780Z,932.62
2019-03-30T02:49:50.829Z,932.67
2019-03-30T02:50:50.975Z,932.64
2019-03-30T02:51:50.917Z,932.66
2019-03-30T02:52:50.976Z,932.68
2019-03-30T02:53:51.023Z,932.70
2019-03-30T02:54:51.039Z,932.67
2019-03-30T02:55:51.082Z,932.68
2019-03-30T02:56:51.141Z,932.63
2019-03-30T02:57:51.204Z,932.65
2019-03-30T02:58:51.252Z,932.64
2019-03-30T02:59:51.282Z,932.60
2019-03-30T03:00:51.312Z,932.62
2019-03-30T03:01:51.354Z,932.60
2019-03-30T03:02:51.413Z,932.61
2019-03-30T03:03:51.494Z,932.58
2019-03-30T03:04:51.499Z,932.51
2019-03-30T03:05:51.533Z,932.52
2019-03-30T03:06:51.605Z,932.54
2019-03-30T03:07:51.646Z,932.50
2019-03-30T03:08:51.669Z,932.51
2019-03-30T03:09:51.713Z,932.46
2019-03-30T03:10:51.894Z,932.46
2019-03-30T03:11:51.785Z,932.48
2019-03-30T03:12:51.837Z,932.36
2019-03-30T03:13:51.881Z,932.43
2019-03-30T03:14:51.957Z,932.42
2019-03-30T03:15:52.005Z,932.40
2019-03-30T03:16:52.056Z,932.41
2019-03-30T03:17:52.067Z,932.35
2019-03-30T03:18:52.103Z,932.36
2019-03-30T03:19:52.155Z,932.33
2019-03-30T03:21:06.647Z,932.34
2019-03-30T03:21:52.267Z,932.31
2019-03-30T03:22:52.429Z,932.29
2019-03-30T03:23:52.328Z,932.26
2019-03-30T03:24:52.395Z,932.25
2019-03-30T03:25:52.436Z,932.31
2019-03-30T03:26:52.491Z,932.31
2019-03-30T03:27:52.523Z,932.29
2019-03-30T03:28:52.554Z,932.32
2019-03-30T03:29:52.620Z,932.32
2019-03-30T03:30:52.670Z,932.33
2019-03-30T03:31:52.677Z,932.28
2019-03-30T03:32:52.780Z,932.24
2019-03-30T03:33:52.772Z,932.24
2019-03-30T03:34:52.854Z,932.25
2019-03-30T03:35:52.880Z,932.18
2019-03-30T03:36:52.914Z,932.21
2019-03-30T03:37:52.957Z,932.23
2019-03-30T03:38:53.032Z,932.19
2019-03-30T03:39:53.041Z,932.22
2019-03-30T03:40:53.101Z,932.27
2019-03-30T03:41:53.122Z,932.21
2019-03-30T03:42:53.167Z,932.23
2019-03-30T03:43:53.215Z,932.21
2019-03-30T03:44:53.256Z,932.24
2019-03-30T03:45:53.320Z,932.20
2019-03-30T03:46:53.394Z,932.24
2019-03-30T03:47:53.417Z,932.23
2019-03-30T03:48:53.441Z,932.22
2019-03-30T03:49:53.511Z,932.20
2019-03-30T03:50:53.527Z,932.23
2019-03-30T03:51:53.629Z,932.23
2019-03-30T03:52:53.634Z,932.24
2019-03-30T03:53:53.686Z,932.22
2019-03-30T03:54:53.715Z,932.25
2019-03-30T03:55:53.754Z,932.32
2019-03-30T03:56:53.814Z,932.25
2019-03-30T03:57:53.842Z,932.28
2019-03-30T03:58:53.906Z,932.22
2019-03-30T03:59:53.940Z,932.19
2019-03-30T04:00:54.075Z,932.22
2019-03-30T04:01:54.065Z,932.21
2019-03-30T04:02:54.100Z,932.22
2019-03-30T04:03:54.130Z,932.19
2019-03-30T04:04:54.177Z,932.19
2019-03-30T04:05:54.194Z,932.20
2019-03-30T04:06:54.227Z,932.14
2019-03-30T04:07:54.317Z,932.18
2019-03-30T04:08:54.333Z,932.19
2019-03-30T04:09:54.382Z,932.17
2019-03-30T04:10:54.409Z,932.12
2019-03-30T04:11:54.505Z,932.10
2019-03-30T04:12:54.533Z,932.16
2019-03-30T04:13:54.542Z,932.07
2019-03-30T04:14:54.594Z,932.10
2019-03-30T04:15:54.660Z,932.11
2019-03-30T04:16:54.683Z,932.14
2019-03-30T04:17:54.715Z,932.16
2019-03-30T04:18:54.803Z,932.12
2019-03-30T04:19:54.827Z,932.04
2019-03-30T04:20:54.841Z,932.08
2019-03-30T04:21:54.949Z,932.16
2019-03-30T04:22:54.929Z,932.03
2019-03-30T04:23:55.008Z,932.00
2019-03-30T04:24:55.073Z,932.05
2019-03-30T04:25:55.062Z,932.07
2019-03-30T04:26:55.140Z,932.05
2019-03-30T04:27:55.181Z,932.11
2019-03-30T04:28:55.187Z,932.02
2019-03-30T04:29:55.263Z,932.15
2019-03-30T04:30:55.288Z,932.03
2019-03-30T04:31:55.350Z,932.06
2019-03-30T04:32:55.400Z,932.07
2019-03-30T04:33:55.418Z,932.05
2019-03-30T04:34:55.479Z,932.03
2019-03-30T04:35:55.518Z,932.06
2019-03-30T04:36:55.577Z,932.04
2019-03-30T04:37:55.599Z,931.98
2019-03-30T04:38:55.696Z,931.96
2019-03-30T04:39:55.692Z,932.00
2019-03-30T04:40:55.738Z,932.04
2019-03-30T04:41:55.833Z,931.92
2019-03-30T04:42:55.814Z,931.92
2019-03-30T04:43:55.982Z,931.91
2019-03-30T04:44:55.929Z,931.95
2019-03-30T04:45:55.954Z,931.94
2019-03-30T04:46:56.013Z,931.91
2019-03-30T04:47:56.035Z,931.92
2019-03-30T04:48:56.100Z,931.86
2019-03-30T04:49:56.135Z,931.85
2019-03-30T04:50:56.166Z,931.91
2019-03-30T04:51:57.655Z,931.83
2019-03-30T04:52:56.304Z,931.84
2019-03-30T04:53:56.324Z,931.88
2019-03-30T04:54:56.343Z,931.81
2019-03-30T04:55:56.394Z,931.80
2019-03-30T04:56:56.438Z,931.82
2019-03-30T04:57:57.874Z,931.82
2019-03-30T04:58:56.541Z,931.80
2019-03-30T04:59:56.582Z,931.81
2019-03-30T05:00:56.666Z,931.84
2019-03-30T05:01:56.656Z,931.87
2019-03-30T05:02:56.717Z,931.76
2019-03-30T05:03:56.746Z,931.83
2019-03-30T05:04:56.838Z,931.74
2019-03-30T05:05:56.847Z,931.78
2019-03-30T05:06:56.886Z,931.74
2019-03-30T05:07:56.965Z,931.68
2019-03-30T05:08:56.977Z,931.67
2019-03-30T05:09:57.019Z,931.67
2019-03-30T05:10:57.057Z,931.70
2019-03-30T05:11:57.109Z,931.69
2019-03-30T05:12:57.146Z,931.68
2019-03-30T05:13:57.183Z,931.69
2019-03-30T05:14:57.282Z,931.66
2019-03-30T05:15:57.283Z,931.70
2019-03-30T05:16:57.308Z,931.64
2019-03-30T05:17:57.366Z,931.69
2019-03-30T05:18:57.392Z,931.70
2019-03-30T05:19:57.443Z,931.72
2019-03-30T05:20:57.494Z,931.63
2019-03-30T05:22:11.089Z,931.65
2019-03-30T05:22:57.576Z,931.64
2019-03-30T05:23:57.607Z,931.64
2019-03-30T05:24:57.689Z,931.65
2019-03-30T05:25:57.734Z,931.61
2019-03-30T05:26:57.743Z,931.74
2019-03-30T05:27:57.812Z,931.60
2019-03-30T05:28:57.843Z,931.61
2019-03-30T05:29:57.903Z,931.63
2019-03-30T05:30:57.947Z,931.64
2019-03-30T05:31:58.020Z,931.65
2019-03-30T05:33:05.554Z,931.59
2019-03-30T05:33:58.058Z,931.61
2019-03-30T05:34:58.184Z,931.55
2019-03-30T05:35:58.158Z,931.60
2019-03-30T05:36:58.236Z,931.60
2019-03-30T05:38:01.327Z,931.64
2019-03-30T05:38:58.398Z,931.66
2019-03-30T05:39:58.333Z,931.67
2019-03-30T05:40:58.363Z,931.69
2019-03-30T05:41:58.435Z,931.65
2019-03-30T05:42:58.484Z,931.69
2019-03-30T05:43:58.491Z,931.72
2019-03-30T05:44:58.642Z,931.69
2019-03-30T05:45:58.608Z,931.65
2019-03-30T05:46:58.649Z,931.68
2019-03-30T05:47:58.667Z,931.70
2019-03-30T05:48:58.743Z,931.67
2019-03-30T05:49:58.766Z,931.61
2019-03-30T05:50:58.797Z,931.68
2019-03-30T05:51:58.866Z,931.68
2019-03-30T05:52:58.920Z,931.67
2019-03-30T05:53:58.956Z,931.69
2019-03-30T05:54:58.963Z,931.61
2019-03-30T05:55:59.127Z,931.63
2019-03-30T05:56:59.082Z,931.68
2019-03-30T05:57:59.132Z,931.56
2019-03-30T05:58:59.199Z,931.54
2019-03-30T05:59:59.193Z,931.57
2019-03-30T06:00:59.291Z,931.58
2019-03-30T06:01:59.298Z,931.59
2019-03-30T06:02:59.326Z,931.53
2019-03-30T06:03:59.391Z,931.52
2019-03-30T06:05:03.008Z,931.51
2019-03-30T06:05:59.489Z,931.54
2019-03-30T06:06:59.525Z,931.51
2019-03-30T06:07:59.559Z,931.49
2019-03-30T06:08:59.601Z,931.52
2019-03-30T06:09:59.691Z,931.48
2019-03-30T06:10:59.708Z,931.47
2019-03-30T06:11:59.729Z,931.50
2019-03-30T06:12:59.765Z,931.54
2019-03-30T06:13:59.806Z,931.50
2019-03-30T06:14:59.854Z,931.50
2019-03-30T06:15:59.910Z,931.49
2019-03-30T06:16:59.943Z,931.52
2019-03-30T06:18:00.007Z,931.57
2019-03-30T06:19:00.079Z,931.53
2019-03-30T06:20:00.065Z,931.55
2019-03-30T06:21:00.124Z,931.51
2019-03-30T06:22:00.171Z,931.52
2019-03-30T06:23:00.205Z,931.53
2019-03-30T06:24:00.232Z,931.52
2019-03-30T06:25:00.503Z,931.49
2019-03-30T06:26:00.346Z,931.48
2019-03-30T06:27:00.367Z,931.47
2019-03-30T06:28:00.411Z,931.46
2019-03-30T06:29:00.485Z,931.47
2019-03-30T06:30:00.522Z,931.47
2019-03-30T06:31:00.551Z,931.53
2019-03-30T06:32:00.592Z,931.48
2019-03-30T06:33:00.643Z,931.51
2019-03-30T06:34:00.710Z,931.52
2019-03-30T06:35:00.746Z,931.52
2019-03-30T06:36:00.795Z,931.52
2019-03-30T06:37:00.836Z,931.48
2019-03-30T06:38:00.862Z,931.48
2019-03-30T06:39:00.917Z,931.44
2019-03-30T06:40:00.967Z,931.48
2019-03-30T06:41:00.990Z,931.49
2019-03-30T06:42:01.103Z,931.53
2019-03-30T06:43:01.090Z,931.46
2019-03-30T06:44:01.121Z,931.46
2019-03-30T06:45:01.166Z,931.48
2019-03-30T06:46:01.249Z,931.53
2019-03-30T06:47:01.266Z,931.51
2019-03-30T06:48:01.309Z,931.53
2019-03-30T06:49:01.370Z,931.54
2019-03-30T06:50:01.396Z,931.54
2019-03-30T06:51:01.489Z,931.47
2019-03-30T06:52:01.478Z,931.49
2019-03-30T06:53:01.535Z,931.49
2019-03-30T06:54:01.566Z,931.46
2019-03-30T06:55:01.633Z,931.47
2019-03-30T06:56:01.664Z,931.48
2019-03-30T06:57:01.728Z,931.50
2019-03-30T06:58:01.752Z,931.46
2019-03-30T06:59:01.799Z,931.46
2019-03-30T07:00:01.869Z,931.45
2019-03-30T07:01:01.882Z,931.44
2019-03-30T07:02:01.943Z,931.48
2019-03-30T07:03:01.983Z,931.48
2019-03-30T07:04:02.025Z,931.46
2019-03-30T07:05:02.058Z,931.50
2019-03-30T07:06:02.094Z,931.46
2019-03-30T07:07:02.146Z,931.40
2019-03-30T07:08:02.188Z,931.43
2019-03-30T07:09:02.236Z,931.43
2019-03-30T07:10:02.282Z,931.35
2019-03-30T07:11:02.329Z,931.41
2019-03-30T07:12:02.357Z,931.42
2019-03-30T07:13:02.415Z,931.43
2019-03-30T07:14:02.474Z,931.43
2019-03-30T07:15:02.490Z,931.37
2019-03-30T07:16:02.546Z,931.40
2019-03-30T07:17:02.604Z,931.39
2019-03-30T07:18:02.642Z,931.38
2019-03-30T07:19:02.766Z,931.39
2019-03-30T07:20:02.763Z,931.42
2019-03-30T07:21:02.815Z,931.42
2019-03-30T07:22:02.825Z,931.42
2019-03-30T07:23:11.870Z,931.41
2019-03-30T07:24:02.896Z,931.43
2019-03-30T07:25:02.943Z,931.45
2019-03-30T07:26:02.983Z,931.43
2019-03-30T07:27:03.053Z,931.40
2019-03-30T07:28:03.048Z,931.41
2019-03-30T07:29:03.119Z,931.45
2019-03-30T07:30:03.176Z,931.45
2019-03-30T07:31:03.209Z,931.45
2019-03-30T07:32:03.242Z,931.48
2019-03-30T07:33:03.298Z,931.47
2019-03-30T07:34:03.325Z,931.40
2019-03-30T07:35:03.371Z,931.44
2019-03-30T07:36:03.419Z,931.43
2019-03-30T07:37:03.461Z,931.47
2019-03-30T07:38:03.510Z,931.46
2019-03-30T07:39:03.564Z,931.49
2019-03-30T07:40:03.597Z,931.47
2019-03-30T07:41:03.644Z,931.50
2019-03-30T07:42:03.680Z,931.50
2019-03-30T07:43:03.728Z,931.53
2019-03-30T07:44:03.766Z,931.55
2019-03-30T07:45:03.822Z,931.53
2019-03-30T07:46:03.856Z,931.50
2019-03-30T07:47:03.906Z,931.53
2019-03-30T07:48:03.931Z,931.53
2019-03-30T07:49:03.987Z,931.53
2019-03-30T07:50:04.037Z,931.49
2019-03-30T07:51:04.053Z,931.56
2019-03-30T07:52:04.120Z,931.55
2019-03-30T07:53:04.266Z,931.56
2019-03-30T07:54:04.215Z,931.58
2019-03-30T07:55:04.252Z,931.56
2019-03-30T07:56:08.538Z,931.56
2019-03-30T07:57:14.881Z,931.58
2019-03-30T07:58:04.369Z,931.61
2019-03-30T07:59:04.422Z,931.64
2019-03-30T08:00:04.472Z,931.58
2019-03-30T08:01:04.549Z,931.57
2019-03-30T08:02:04.539Z,931.61
2019-03-30T08:03:04.578Z,931.64
2019-03-30T08:04:04.645Z,931.65
2019-03-30T08:05:04.689Z,931.66
2019-03-30T08:06:04.728Z,931.67
2019-03-30T08:07:04.777Z,931.69
2019-03-30T08:08:04.822Z,931.69
2019-03-30T08:09:04.836Z,931.68
2019-03-30T08:10:04.906Z,931.67
2019-03-30T08:11:04.928Z,931.75
2019-03-30T08:12:04.975Z,931.73
2019-03-30T08:13:05.013Z,931.73
2019-03-30T08:14:05.104Z,931.74
2019-03-30T08:15:05.121Z,931.73
2019-03-30T08:16:05.152Z,931.72
2019-03-30T08:17:05.223Z,931.75
2019-03-30T08:18:05.268Z,931.71
2019-03-30T08:19:05.438Z,931.74
2019-03-30T08:20:05.372Z,931.75
2019-03-30T08:21:05.388Z,931.76
2019-03-30T08:22:05.418Z,931.75
2019-03-30T08:23:05.471Z,931.73
2019-03-30T08:24:05.509Z,931.73
2019-03-30T08:25:05.669Z,931.75
2019-03-30T08:26:05.585Z,931.77
2019-03-30T08:27:05.682Z,931.77
2019-03-30T08:28:05.738Z,931.76
2019-03-30T08:29:05.715Z,931.78
2019-03-30T08:30:05.805Z,931.77
2019-03-30T08:31:05.814Z,931.79
2019-03-30T08:32:05.857Z,931.81
2019-03-30T08:33:05.884Z,931.83
2019-03-30T08:34:05.988Z,931.84
2019-03-30T08:35:06.026Z,931.77
2019-03-30T08:36:06.155Z,931.82
2019-03-30T08:37:06.096Z,931.78
2019-03-30T08:38:06.165Z,931.80
2019-03-30T08:39:06.219Z,931.79
2019-03-30T08:40:06.212Z,931.83
2019-03-30T08:41:06.240Z,931.84
2019-03-30T08:42:06.293Z,931.82
2019-03-30T08:43:06.355Z,931.84
2019-03-30T08:44:06.368Z,931.81
2019-03-30T08:45:06.433Z,931.85
2019-03-30T08:46:06.455Z,931.88
2019-03-30T08:47:06.504Z,931.85
2019-03-30T08:48:06.543Z,931.85
2019-03-30T08:49:06.574Z,931.89
2019-03-30T08:50:06.643Z,931.91
2019-03-30T08:51:06.665Z,931.93
2019-03-30T08:52:06.725Z,931.93
2019-03-30T08:53:06.760Z,931.91
2019-03-30T08:54:06.802Z,931.95
2019-03-30T08:55:06.856Z,931.94
2019-03-30T08:56:06.903Z,931.98
2019-03-30T08:57:07.042Z,931.97
2019-03-30T08:58:06.989Z,931.97
2019-03-30T08:59:07.034Z,932.00
2019-03-30T09:00:07.064Z,932.03
2019-03-30T09:01:07.094Z,932.03
2019-03-30T09:02:07.148Z,932.03
2019-03-30T09:03:07.213Z,932.07
2019-03-30T09:04:07.245Z,932.06
2019-03-30T09:05:07.284Z,932.11
2019-03-30T09:06:07.321Z,932.18
2019-03-30T09:07:07.368Z,932.15
2019-03-30T09:08:07.405Z,932.17
2019-03-30T09:09:07.463Z,932.17
2019-03-30T09:10:07.496Z,932.21
2019-03-30T09:11:07.532Z,932.18
2019-03-30T09:12:07.595Z,932.25
2019-03-30T09:13:07.641Z,932.24
2019-03-30T09:14:07.657Z,932.30
2019-03-30T09:15:07.692Z,932.27
2019-03-30T09:16:07.821Z,932.26
2019-03-30T09:17:07.803Z,932.31
2019-03-30T09:18:07.858Z,932.31
2019-03-30T09:19:07.985Z,932.30
2019-03-30T09:20:07.939Z,932.36
2019-03-30T09:21:07.977Z,932.34
2019-03-30T09:22:08.013Z,932.36
2019-03-30T09:23:08.073Z,932.39
2019-03-30T09:24:09.979Z,932.42
2019-03-30T09:25:08.129Z,932.39
2019-03-30T09:26:08.197Z,932.43
2019-03-30T09:27:08.233Z,932.40
2019-03-30T09:28:08.277Z,932.42
2019-03-30T09:29:08.361Z,932.40
2019-03-30T09:30:08.357Z,932.39
2019-03-30T09:31:08.423Z,932.37
2019-03-30T09:32:14.795Z,932.41
2019-03-30T09:33:08.506Z,932.37
2019-03-30T09:34:08.543Z,932.43
2019-03-30T09:35:08.583Z,932.38
2019-03-30T09:36:08.621Z,932.39
2019-03-30T09:37:08.671Z,932.37
2019-03-30T09:38:08.709Z,932.41
2019-03-30T09:39:08.754Z,932.39
2019-03-30T09:40:08.800Z,932.39
2019-03-30T09:41:08.839Z,932.40
2019-03-30T09:42:08.893Z,932.43
2019-03-30T09:43:08.922Z,932.48
2019-03-30T09:44:09.007Z,932.45
2019-03-30T09:45:09.058Z,932.41
2019-03-30T09:46:09.052Z,932.44
2019-03-30T09:47:09.110Z,932.46
2019-03-30T09:48:09.178Z,932.49
2019-03-30T09:49:09.195Z,932.50
2019-03-30T09:50:09.247Z,932.51
2019-03-30T09:51:09.257Z,932.53
2019-03-30T09:52:09.311Z,932.54
2019-03-30T09:53:09.351Z,932.52
2019-03-30T09:54:22.811Z,932.51
2019-03-30T09:55:09.433Z,932.50
2019-03-30T09:56:09.482Z,932.55
2019-03-30T09:57:09.517Z,932.49
2019-03-30T09:58:09.563Z,932.52
2019-03-30T09:59:09.635Z,932.49
2019-03-30T10:00:09.692Z,932.56
2019-03-30T10:01:09.716Z,932.49
2019-03-30T10:02:09.752Z,932.53
2019-03-30T10:03:09.804Z,932.58
2019-03-30T10:04:09.827Z,932.57
2019-03-30T10:05:09.879Z,932.65
2019-03-30T10:06:09.936Z,932.59
2019-03-30T10:07:09.966Z,932.61
2019-03-30T10:08:09.995Z,932.63
2019-03-30T10:09:10.045Z,932.64
2019-03-30T10:10:10.084Z,932.63
2019-03-30T10:11:10.158Z,932.68
2019-03-30T10:12:10.195Z,932.68
2019-03-30T10:13:10.233Z,932.69
2019-03-30T10:14:10.264Z,932.66
2019-03-30T10:15:10.331Z,932.67
2019-03-30T10:16:10.365Z,932.66
2019-03-30T10:17:10.428Z,932.70
2019-03-30T10:18:10.447Z,932.70
2019-03-30T10:19:10.508Z,932.71
2019-03-30T10:20:10.538Z,932.71
2019-03-30T10:21:10.603Z,932.72
2019-03-30T10:22:10.643Z,932.76
2019-03-30T10:23:10.669Z,932.78
2019-03-30T10:24:10.730Z,932.74
2019-03-30T10:25:10.769Z,932.81
2019-03-30T10:26:10.811Z,932.85
2019-03-30T10:27:10.837Z,932.82
2019-03-30T10:28:10.888Z,932.81
2019-03-30T10:29:10.951Z,932.81
2019-03-30T10:30:10.992Z,932.84
2019-03-30T10:31:11.018Z,932.80
2019-03-30T10:32:11.100Z,932.82
2019-03-30T10:33:11.123Z,932.86
2019-03-30T10:34:11.212Z,932.87
2019-03-30T10:35:11.212Z,932.90
2019-03-30T10:36:11.280Z,932.86
2019-03-30T10:37:11.331Z,932.93
2019-03-30T10:38:11.354Z,932.98
2019-03-30T10:39:11.430Z,932.94
2019-03-30T10:40:11.462Z,932.96
2019-03-30T10:41:11.551Z,932.96
2019-03-30T10:42:11.554Z,932.96
2019-03-30T10:43:11.606Z,933.00
2019-03-30T10:44:11.671Z,932.97
2019-03-30T10:45:11.703Z,933.03
2019-03-30T10:46:11.754Z,933.00
2019-03-30T10:47:11.847Z,933.04
2019-03-30T10:48:11.888Z,933.04
2019-03-30T10:49:11.951Z,933.09
2019-03-30T10:50:11.953Z,933.03
2019-03-30T10:51:11.991Z,933.04
2019-03-30T10:52:12.045Z,933.07
2019-03-30T10:53:12.111Z,933.04
2019-03-30T10:54:12.154Z,933.04
2019-03-30T10:55:12.216Z,933.06
2019-03-30T10:56:12.278Z,933.01
2019-03-30T10:57:12.334Z,933.04
2019-03-30T10:58:12.375Z,933.05
2019-03-30T10:59:12.474Z,933.13
2019-03-30T11:00:12.464Z,933.06
2019-03-30T11:01:12.524Z,933.05
2019-03-30T11:02:12.559Z,933.07
2019-03-30T11:03:12.621Z,933.06
2019-03-30T11:04:12.649Z,933.16
2019-03-30T11:05:12.721Z,933.08
2019-03-30T11:06:12.810Z,933.09
2019-03-30T11:07:12.869Z,933.13
2019-03-30T11:08:12.863Z,933.15
2019-03-30T11:09:12.911Z,933.29
2019-03-30T11:10:13.014Z,933.25
2019-03-30T11:11:13.041Z,933.27
2019-03-30T11:12:13.085Z,933.23
2019-03-30T11:13:13.127Z,933.29
2019-03-30T11:14:13.197Z,933.27
2019-03-30T11:15:13.240Z,933.30
2019-03-30T11:16:13.277Z,933.33
2019-03-30T11:17:13.337Z,933.31
2019-03-30T11:18:13.388Z,933.31
2019-03-30T11:19:13.457Z,933.31
2019-03-30T11:20:13.475Z,933.33
2019-03-30T11:21:13.533Z,933.26
2019-03-30T11:22:13.621Z,933.25
2019-03-30T11:23:13.678Z,933.32
2019-03-30T11:24:13.694Z,933.34
2019-03-30T11:25:13.776Z,933.33
2019-03-30T11:26:13.811Z,933.32
2019-03-30T11:27:13.867Z,933.34
2019-03-30T11:28:13.938Z,933.40
2019-03-30T11:29:13.973Z,933.34
2019-03-30T11:30:14.047Z,933.34
2019-03-30T11:31:14.066Z,933.31
2019-03-30T11:32:14.141Z,933.28
2019-03-30T11:33:14.194Z,933.32
2019-03-30T11:34:14.244Z,933.35
2019-03-30T11:35:14.307Z,933.36
2019-03-30T11:36:14.369Z,933.33
2019-03-30T11:37:14.395Z,933.29
2019-03-30T11:38:14.448Z,933.34
2019-03-30T11:39:14.500Z,933.34
2019-03-30T11:40:14.580Z,933.34
2019-03-30T11:41:14.619Z,933.32
2019-03-30T11:42:14.671Z,933.34
2019-03-30T11:43:14.760Z,933.36
2019-03-30T11:44:14.779Z,933.32
2019-03-30T11:45:14.818Z,933.34
2019-03-30T11:46:14.886Z,933.37
2019-03-30T11:47:14.959Z,933.38
2019-03-30T11:48:14.993Z,933.47
2019-03-30T11:49:15.044Z,933.47
2019-03-30T11:50:15.110Z,933.47
2019-03-30T11:51:15.164Z,933.51
2019-03-30T11:52:15.193Z,933.54
2019-03-30T11:53:15.255Z,933.58
2019-03-30T11:54:15.312Z,933.53
2019-03-30T11:55:21.702Z,933.55
2019-03-30T11:56:15.435Z,933.59
2019-03-30T11:57:15.472Z,933.56
2019-03-30T11:58:15.518Z,933.55
2019-03-30T11:59:15.597Z,933.57
2019-03-30T12:00:15.650Z,933.63
2019-03-30T12:01:15.713Z,933.60
2019-03-30T12:02:27.271Z,933.63
2019-03-30T12:03:15.810Z,933.57
2019-03-30T12:04:15.867Z,933.62
2019-03-30T12:05:15.917Z,933.63
2019-03-30T12:06:15.987Z,933.61
2019-03-30T12:07:16.025Z,933.64
2019-03-30T12:08:16.077Z,933.62
2019-03-30T12:09:16.128Z,933.65
2019-03-30T12:10:16.207Z,933.57
2019-03-30T12:11:16.261Z,933.65
2019-03-30T12:12:16.311Z,933.74
2019-03-30T12:13:16.368Z,933.64
2019-03-30T12:14:16.454Z,933.71
2019-03-30T12:15:16.490Z,933.63
2019-03-30T12:16:16.516Z,933.59
2019-03-30T12:17:16.582Z,933.64
2019-03-30T12:18:16.633Z,933.64
2019-03-30T12:19:16.700Z,933.63
2019-03-30T12:20:16.735Z,933.67
2019-03-30T12:21:16.819Z,933.62
2019-03-30T12:22:16.903Z,933.65
2019-03-30T12:23:16.930Z,933.70
2019-03-30T12:24:16.984Z,933.71
2019-03-30T12:25:17.042Z,933.70
2019-03-30T12:26:17.101Z,933.71
2019-03-30T12:27:17.158Z,933.67
2019-03-30T12:28:17.208Z,933.63
2019-03-30T12:29:17.339Z,933.65